Ciclone tropical EBULA 2003: trajetória, intensidade e histórico
15/01/2003, 06:00:00
6/01/2003, 12:00:00 – 15/01/2003, 06:00:00
Trajetória histórica
Acompanhe a evolução e o deslocamento de Ciclone tropical EBULA em 2003, com a trajetória completa registrada, ventos máximos sustentados de 65 nós, pressão central mínima e cronologia detalhada.
| Data | Hora | Tipo | Ventokm/h | PressãohPa |
|---|---|---|---|---|
| 15/01 | 06:00 | TCCiclone tropical | 35 | 1012 |
| 15/01 | 03:00 | TDDepressão tropical | 35 | 1011 |
| 15/01 | 00:00 | TCCiclone tropical | 35 | 1010 |
| 14/01 | 21:00 | EXCiclone extratropical | 35 | 1009 |
| 14/01 | 18:00 | STSTempestade tropical severa | 35 | 1008 |
| 14/01 | 15:00 | EXCiclone extratropical | 35 | 1008 |
| 14/01 | 12:00 | STSTempestade tropical severa | 35 | 1007 |
| 14/01 | 09:00 | EXCiclone extratropical | 45 | 1006 |
| 14/01 | 06:00 | STSTempestade tropical severa | 45 | 1005 |
| 14/01 | 03:00 | EXCiclone extratropical | 45 | 1005 |
| 14/01 | 00:00 | STSTempestade tropical severa | 45 | 1004 |
| 13/01 | 21:00 | EXCiclone extratropical | 50 | 1003 |
| 13/01 | 18:00 | STSTempestade tropical severa | 55 | 1002 |
| 13/01 | 15:00 | EXCiclone extratropical | 55 | 1001 |
| 13/01 | 12:00 | STSTempestade tropical severa | 55 | 1000 |
| 13/01 | 09:00 | EXCiclone extratropical | 60 | 999 |
| 13/01 | 06:00 | STSTempestade tropical severa | 65 | 998 |
| 13/01 | 03:00 | EXCiclone extratropical | 65 | 998 |
| 13/01 | 00:00 | STSTempestade tropical severa | 65 | 998 |
| 12/01 | 21:00 | EXCiclone extratropical | 65 | 997 |
| 12/01 | 18:00 | STSTempestade tropical severa | 70 | 996 |
| 12/01 | 15:00 | TDDepressão tropical | 70 | 996 |
| 12/01 | 12:00 | STSTempestade tropical severa | 55 | 1000 |
| 12/01 | 09:00 | TSTempestade tropical | 60 | 999 |
| 12/01 | 06:00 | TDDepressão tropical | 65 | 997 |
| 12/01 | 03:00 | TSTempestade tropical | 70 | 996 |
| 12/01 | 00:00 | TDDepressão tropical | 75 | 994 |
| 11/01 | 21:00 | TSTempestade tropical | 80 | 993 |
| 11/01 | 18:00 | TDDepressão tropical | 85 | 991 |
| 11/01 | 15:00 | TSTempestade tropical | 90 | 989 |
| 11/01 | 12:00 | TDDepressão tropical | 95 | 987 |
| 11/01 | 09:00 | TSTempestade tropical | 100 | 986 |
| 11/01 | 06:00 | TDDepressão tropical | 100 | 984 |
| 11/01 | 03:00 | TSTempestade tropical | 105 | 982 |
| 11/01 | 00:00 | TDDepressão tropical | 110 | 980 |
| 10/01 | 21:00 | TCCiclone tropical | 115 | 978 |
| 10/01 | 18:00 | TDDepressão tropical | 120 | 976 |
| 10/01 | 15:00 | TCCiclone tropical | 120 | 976 |
| 10/01 | 12:00 | TDDepressão tropical | 120 | 976 |
| 10/01 | 09:00 | TCCiclone tropical | 120 | 976 |
| 10/01 | 06:00 | TDDepressão tropical | 120 | 976 |
| 10/01 | 03:00 | TCCiclone tropical | 120 | 976 |
| 10/01 | 00:00 | TDDepressão tropical | 120 | 976 |
| 09/01 | 21:00 | TSTempestade tropical | 115 | 978 |
| 09/01 | 18:00 | TDDepressão tropical | 110 | 980 |
| 09/01 | 15:00 | TSTempestade tropical | 105 | 982 |
| 09/01 | 12:00 | TDDepressão tropical | 100 | 984 |
| 09/01 | 09:00 | TSTempestade tropical | 100 | 986 |
| 09/01 | 06:00 | TDDepressão tropical | 95 | 987 |
| 09/01 | 03:00 | TSTempestade tropical | 95 | 987 |
| 09/01 | 00:00 | TDDepressão tropical | 95 | 987 |
| 08/01 | 21:00 | TSTempestade tropical | 85 | 991 |
| 08/01 | 18:00 | DBPerturbação tropical | 75 | 994 |
| 08/01 | 15:00 | TSTempestade tropical | 70 | 996 |
| 08/01 | 12:00 | DBPerturbação tropical | 65 | 997 |
| 08/01 | 09:00 | TSTempestade tropical | 65 | 997 |
| 08/01 | 06:00 | DBPerturbação tropical | 65 | 997 |
| 08/01 | 03:00 | TSTempestade tropical | 65 | 997 |
| 08/01 | 00:00 | DBPerturbação tropical | 65 | 997 |
| 07/01 | 21:00 | TDDepressão tropical | 55 | 1000 |
| 07/01 | 18:00 | DBPerturbação tropical | 45 | 1002 |
| 07/01 | 15:00 | TDDepressão tropical | 45 | 1002 |
| 07/01 | 12:00 | DBPerturbação tropical | 45 | 1002 |
| 07/01 | 09:00 | TDDepressão tropical | 45 | 1002 |
| 07/01 | 06:00 | DBPerturbação tropical | 45 | 1002 |
| 07/01 | 03:00 | TDDepressão tropical | 45 | 1002 |
| 07/01 | 00:00 | TDDepressão tropical | 45 | 1002 |
| 06/01 | 21:00 | TDDepressão tropical | 45 | 1002 |
| 06/01 | 18:00 | TDDepressão tropical | 45 | 1002 |
| 06/01 | 15:00 | TDDepressão tropical | 45 | 1002 |
| 06/01 | 12:00 | TDDepressão tropical | 45 | 1002 |
Cronologia de localização
71 Registos de localizaçãoDetalhes do evento
Ligações das fontes
A localização, a extensão e o estado de cada evento podem ser atualizados em momentos diferentes consoante a fonte. Confirme decisões importantes junto das autoridades oficiais de emergência.
Os registos de eventos provêm da NASA EONET e são complementados por registos de deslizamentos de terra do USGS FDSN. As análises e previsões de tempestades podem utilizar a NOAA NHC ou o JTWC, com registos históricos ATCF da UCAR/NCAR quando disponíveis. As imagens de satélite provêm da NASA Worldview/GIBS (GOES e Himawari) ou da EUMETSAT Meteosat, consoante a cobertura do mapa.
Fontes: NASA EONET · USGS · NOAA NHC · JTWC · UCAR/NCAR ATCF · NASA Worldview/GIBS · EUMETSAT Meteosat · OpenStreetMap contributors